sensor_id;sensor_type;location;lat;lon;timestamp;pressure;altitude;pressure_sealevel;temperature;humidity
59873;BME280;50750;51.636;4.948;2023-02-23T00:01:51;101439.94;;;12.32;65.72
59873;BME280;50750;51.636;4.948;2023-02-23T00:04:18;101439.92;;;12.33;65.74
59873;BME280;50750;51.636;4.948;2023-02-23T00:06:45;101438.88;;;12.33;65.63
59873;BME280;50750;51.636;4.948;2023-02-23T00:09:11;101437.47;;;12.33;65.73
59873;BME280;50750;51.636;4.948;2023-02-23T00:11:53;101435.71;;;12.32;65.63
59873;BME280;50750;51.636;4.948;2023-02-23T00:14:23;101437.84;;;12.32;65.78
59873;BME280;50750;51.636;4.948;2023-02-23T00:16:53;101434.70;;;12.32;65.65
59873;BME280;50750;51.636;4.948;2023-02-23T00:19:20;101440.67;;;12.32;65.72
59873;BME280;50750;51.636;4.948;2023-02-23T00:21:52;101434.89;;;12.31;65.62
59873;BME280;50750;51.636;4.948;2023-02-23T00:24:18;101434.36;;;12.31;65.73
59873;BME280;50750;51.636;4.948;2023-02-23T00:26:47;101431.01;;;12.32;65.69
59873;BME280;50750;51.636;4.948;2023-02-23T00:29:18;101428.38;;;12.32;65.73
59873;BME280;50750;51.636;4.948;2023-02-23T00:31:46;101427.31;;;12.32;65.71
59873;BME280;50750;51.636;4.948;2023-02-23T00:34:14;101426.98;;;12.32;65.71
59873;BME280;50750;51.636;4.948;2023-02-23T00:36:42;101424.52;;;12.31;65.78
59873;BME280;50750;51.636;4.948;2023-02-23T00:39:11;101423.48;;;12.31;65.79
59873;BME280;50750;51.636;4.948;2023-02-23T00:41:48;101419.45;;;12.31;65.79
59873;BME280;50750;51.636;4.948;2023-02-23T00:44:15;101422.63;;;12.31;65.72
59873;BME280;50750;51.636;4.948;2023-02-23T00:46:43;101422.96;;;12.31;65.87
59873;BME280;50750;51.636;4.948;2023-02-23T00:49:12;101423.67;;;12.30;65.80
59873;BME280;50750;51.636;4.948;2023-02-23T00:51:39;101426.51;;;12.29;65.81
59873;BME280;50750;51.636;4.948;2023-02-23T00:54:06;101424.75;;;12.29;65.84
59873;BME280;50750;51.636;4.948;2023-02-23T00:56:33;101425.44;;;12.30;65.78
59873;BME280;50750;51.636;4.948;2023-02-23T00:59:00;101423.33;;;12.30;65.75
59873;BME280;50750;51.636;4.948;2023-02-23T01:01:26;101427.88;;;12.30;65.90
59873;BME280;50750;51.636;4.948;2023-02-23T01:03:53;101431.39;;;12.31;65.73
59873;BME280;50750;51.636;4.948;2023-02-23T01:06:20;101431.04;;;12.31;65.71
59873;BME280;50750;51.636;4.948;2023-02-23T01:08:49;101434.89;;;12.31;65.77
59873;BME280;50750;51.636;4.948;2023-02-23T01:11:19;101433.30;;;12.31;65.83
59873;BME280;50750;51.636;4.948;2023-02-23T01:13:51;101434.02;;;12.31;65.72
59873;BME280;50750;51.636;4.948;2023-02-23T01:16:21;101432.45;;;12.30;65.81
59873;BME280;50750;51.636;4.948;2023-02-23T01:18:48;101434.40;;;12.30;65.78
59873;BME280;50750;51.636;4.948;2023-02-23T01:21:15;101434.91;;;12.30;65.73
59873;BME280;50750;51.636;4.948;2023-02-23T01:23:42;101434.57;;;12.30;65.76
59873;BME280;50750;51.636;4.948;2023-02-23T01:28:52;101440.35;;;12.30;65.90
59873;BME280;50750;51.636;4.948;2023-02-23T01:31:21;101440.70;;;12.30;65.81
59873;BME280;50750;51.636;4.948;2023-02-23T01:33:59;101442.96;;;12.31;65.74
59873;BME280;50750;51.636;4.948;2023-02-23T01:36:26;101447.71;;;12.31;65.83
59873;BME280;50750;51.636;4.948;2023-02-23T01:38:56;101449.82;;;12.31;65.83
59873;BME280;50750;51.636;4.948;2023-02-23T01:41:27;101450.71;;;12.31;65.84
59873;BME280;50750;51.636;4.948;2023-02-23T01:46:21;101453.02;;;12.30;65.84
59873;BME280;50750;51.636;4.948;2023-02-23T01:48:48;101454.42;;;12.29;65.82
59873;BME280;50750;51.636;4.948;2023-02-23T01:51:20;101457.79;;;12.29;65.91
59873;BME280;50750;51.636;4.948;2023-02-23T01:53:59;101457.27;;;12.29;65.81
59873;BME280;50750;51.636;4.948;2023-02-23T01:56:34;101457.42;;;12.29;65.95
59873;BME280;50750;51.636;4.948;2023-02-23T01:59:05;101459.68;;;12.30;65.80
59873;BME280;50750;51.636;4.948;2023-02-23T02:01:32;101460.55;;;12.30;65.83
59873;BME280;50750;51.636;4.948;2023-02-23T02:04:01;101457.20;;;12.30;65.76
59873;BME280;50750;51.636;4.948;2023-02-23T02:06:32;101455.98;;;12.31;65.81
59873;BME280;50750;51.636;4.948;2023-02-23T02:09:07;101450.88;;;12.30;65.77
59873;BME280;50750;51.636;4.948;2023-02-23T02:11:36;101451.05;;;12.31;65.81
59873;BME280;50750;51.636;4.948;2023-02-23T02:22:50;101452.48;;;12.30;65.86
59873;BME280;50750;51.636;4.948;2023-02-23T02:39:27;101449.60;;;12.32;65.86
59873;BME280;50750;51.636;4.948;2023-02-23T02:44:52;101444.86;;;12.32;65.75
59873;BME280;50750;51.636;4.948;2023-02-23T02:50:07;101443.84;;;12.32;65.88
59873;BME280;50750;51.636;4.948;2023-02-23T02:52:48;101442.63;;;12.31;65.79
59873;BME280;50750;51.636;4.948;2023-02-23T02:55:24;101444.36;;;12.31;65.81
59873;BME280;50750;51.636;4.948;2023-02-23T02:57:55;101441.56;;;12.31;65.76
59873;BME280;50750;51.636;4.948;2023-02-23T03:00:30;101441.90;;;12.32;65.79
59873;BME280;50750;51.636;4.948;2023-02-23T03:03:38;101443.28;;;12.32;65.76
59873;BME280;50750;51.636;4.948;2023-02-23T03:06:28;101442.75;;;12.32;65.75
59873;BME280;50750;51.636;4.948;2023-02-23T03:22:01;101455.25;;;12.31;65.81
59873;BME280;50750;51.636;4.948;2023-02-23T03:25:09;101457.37;;;12.31;65.78
59873;BME280;50750;51.636;4.948;2023-02-23T03:34:21;101466.84;;;12.31;65.81
59873;BME280;50750;51.636;4.948;2023-02-23T03:37:16;101461.06;;;12.31;65.82
59873;BME280;50750;51.636;4.948;2023-02-23T03:42:54;101468.76;;;12.32;65.83
59873;BME280;50750;51.636;4.948;2023-02-23T03:45:43;101464.54;;;12.32;65.84
59873;BME280;50750;51.636;4.948;2023-02-23T03:48:31;101467.70;;;12.32;65.76
59873;BME280;50750;51.636;4.948;2023-02-23T03:51:18;101463.86;;;12.31;65.80
59873;BME280;50750;51.636;4.948;2023-02-23T03:54:17;101470.16;;;12.32;65.82
59873;BME280;50750;51.636;4.948;2023-02-23T03:57:08;101467.73;;;12.31;65.87
59873;BME280;50750;51.636;4.948;2023-02-23T03:59:57;101469.15;;;12.30;65.78
59873;BME280;50750;51.636;4.948;2023-02-23T04:02:47;101471.27;;;12.30;65.85
59873;BME280;50750;51.636;4.948;2023-02-23T04:05:36;101473.55;;;12.30;65.84
59873;BME280;50750;51.636;4.948;2023-02-23T04:08:27;101473.19;;;12.30;65.82
59873;BME280;50750;51.636;4.948;2023-02-23T04:11:34;101473.37;;;12.30;65.84
59873;BME280;50750;51.636;4.948;2023-02-23T04:14:30;101473.52;;;12.31;65.87
59873;BME280;50750;51.636;4.948;2023-02-23T04:16:59;101478.64;;;12.31;65.88
59873;BME280;50750;51.636;4.948;2023-02-23T04:19:27;101475.99;;;12.31;65.84
59873;BME280;50750;51.636;4.948;2023-02-23T04:21:54;101478.77;;;12.31;65.74
59873;BME280;50750;51.636;4.948;2023-02-23T04:24:21;101480.72;;;12.31;65.82
59873;BME280;50750;51.636;4.948;2023-02-23T04:26:47;101483.17;;;12.32;65.77
59873;BME280;50750;51.636;4.948;2023-02-23T04:29:15;101482.98;;;12.32;65.85
59873;BME280;50750;51.636;4.948;2023-02-23T04:31:41;101483.36;;;12.32;65.80
59873;BME280;50750;51.636;4.948;2023-02-23T04:34:08;101484.23;;;12.31;65.75
59873;BME280;50750;51.636;4.948;2023-02-23T04:36:35;101483.34;;;12.32;65.86
59873;BME280;50750;51.636;4.948;2023-02-23T04:39:02;101481.55;;;12.32;65.87
59873;BME280;50750;51.636;4.948;2023-02-23T04:41:28;101481.71;;;12.33;65.74
59873;BME280;50750;51.636;4.948;2023-02-23T04:43:55;101484.49;;;12.34;65.76
59873;BME280;50750;51.636;4.948;2023-02-23T04:46:21;101484.13;;;12.35;65.75
59873;BME280;50750;51.636;4.948;2023-02-23T04:48:48;101481.14;;;12.35;65.70
59873;BME280;50750;51.636;4.948;2023-02-23T04:51:15;101484.46;;;12.35;65.71
59873;BME280;50750;51.636;4.948;2023-02-23T04:53:41;101482.35;;;12.35;65.80
59873;BME280;50750;51.636;4.948;2023-02-23T04:56:08;101483.94;;;12.35;65.76
59873;BME280;50750;51.636;4.948;2023-02-23T04:58:34;101488.68;;;12.35;65.71
59873;BME280;50750;51.636;4.948;2023-02-23T05:01:07;101489.05;;;12.35;65.66
59873;BME280;50750;51.636;4.948;2023-02-23T05:03:35;101489.43;;;12.34;65.76
59873;BME280;50750;51.636;4.948;2023-02-23T05:06:02;101489.09;;;12.33;65.76
59873;BME280;50750;51.636;4.948;2023-02-23T05:08:28;101491.40;;;12.32;65.67
59873;BME280;50750;51.636;4.948;2023-02-23T05:10:55;101493.52;;;12.32;65.80
59873;BME280;50750;51.636;4.948;2023-02-23T05:13:23;101497.00;;;12.33;65.80
59873;BME280;50750;51.636;4.948;2023-02-23T05:15:49;101499.29;;;12.32;65.88
59873;BME280;50750;51.636;4.948;2023-02-23T05:18:17;101497.35;;;12.33;65.79
59873;BME280;50750;51.636;4.948;2023-02-23T05:20:43;101503.16;;;12.33;65.83
59873;BME280;50750;51.636;4.948;2023-02-23T05:23:10;101505.77;;;12.33;65.78
59873;BME280;50750;51.636;4.948;2023-02-23T05:25:40;101506.31;;;12.33;65.78
59873;BME280;50750;51.636;4.948;2023-02-23T05:28:06;101508.41;;;12.33;65.82
59873;BME280;50750;51.636;4.948;2023-02-23T05:30:35;101508.60;;;12.33;65.76
59873;BME280;50750;51.636;4.948;2023-02-23T05:33:02;101513.16;;;12.33;65.77
59873;BME280;50750;51.636;4.948;2023-02-23T05:35:29;101512.98;;;12.33;65.75
59873;BME280;50750;51.636;4.948;2023-02-23T05:37:56;101516.84;;;12.33;65.71
59873;BME280;50750;51.636;4.948;2023-02-23T05:40:23;101517.73;;;12.33;65.77
59873;BME280;50750;51.636;4.948;2023-02-23T05:42:49;101516.98;;;12.34;65.73
59873;BME280;50750;51.636;4.948;2023-02-23T05:45:16;101516.80;;;12.34;65.74
59873;BME280;50750;51.636;4.948;2023-02-23T05:47:42;101517.14;;;12.35;65.72
59873;BME280;50750;51.636;4.948;2023-02-23T05:50:10;101518.54;;;12.36;65.74
59873;BME280;50750;51.636;4.948;2023-02-23T05:52:40;101516.42;;;12.36;65.71
59873;BME280;50750;51.636;4.948;2023-02-23T05:55:09;101520.63;;;12.36;65.66
59873;BME280;50750;51.636;4.948;2023-02-23T05:57:37;101521.50;;;12.36;65.70
59873;BME280;50750;51.636;4.948;2023-02-23T06:00:05;101520.61;;;12.36;65.65
59873;BME280;50750;51.636;4.948;2023-02-23T06:02:33;101521.85;;;12.36;65.70
59873;BME280;50750;51.636;4.948;2023-02-23T06:04:59;101522.20;;;12.36;65.60
59873;BME280;50750;51.636;4.948;2023-02-23T06:07:26;101520.13;;;12.36;65.66
59873;BME280;50750;51.636;4.948;2023-02-23T06:09:52;101520.45;;;12.36;65.68
59873;BME280;50750;51.636;4.948;2023-02-23T06:12:19;101522.54;;;12.37;65.63
59873;BME280;50750;51.636;4.948;2023-02-23T06:14:45;101525.32;;;12.37;65.69
59873;BME280;50750;51.636;4.948;2023-02-23T06:17:12;101526.38;;;12.38;65.53
59873;BME280;50750;51.636;4.948;2023-02-23T06:19:39;101530.20;;;12.39;65.60
59873;BME280;50750;51.636;4.948;2023-02-23T06:22:06;101529.52;;;12.39;65.62
59873;BME280;50750;51.636;4.948;2023-02-23T06:24:32;101533.73;;;12.39;65.58
59873;BME280;50750;51.636;4.948;2023-02-23T06:27:00;101534.58;;;12.40;65.68
59873;BME280;50750;51.636;4.948;2023-02-23T06:29:26;101537.39;;;12.40;65.50
59873;BME280;50750;51.636;4.948;2023-02-23T06:31:53;101536.36;;;12.39;65.50
59873;BME280;50750;51.636;4.948;2023-02-23T06:34:19;101535.33;;;12.38;65.53
59873;BME280;50750;51.636;4.948;2023-02-23T06:36:46;101537.80;;;12.37;65.60
59873;BME280;50750;51.636;4.948;2023-02-23T06:39:12;101541.53;;;12.36;65.63
59873;BME280;50750;51.636;4.948;2023-02-23T06:41:39;101548.58;;;12.36;65.71
59873;BME280;50750;51.636;4.948;2023-02-23T06:44:05;101551.91;;;12.36;65.65
59873;BME280;50750;51.636;4.948;2023-02-23T06:46:32;101552.60;;;12.36;65.61
59873;BME280;50750;51.636;4.948;2023-02-23T06:48:59;101554.55;;;12.36;65.67
59873;BME280;50750;51.636;4.948;2023-02-23T06:51:26;101556.11;;;12.36;65.58
59873;BME280;50750;51.636;4.948;2023-02-23T06:53:52;101561.56;;;12.35;65.63
59873;BME280;50750;51.636;4.948;2023-02-23T06:56:20;101563.51;;;12.35;65.69
59873;BME280;50750;51.636;4.948;2023-02-23T06:58:46;101566.14;;;12.35;65.69
59873;BME280;50750;51.636;4.948;2023-02-23T07:01:14;101568.44;;;12.34;65.69
59873;BME280;50750;51.636;4.948;2023-02-23T07:03:41;101575.13;;;12.34;65.77
59873;BME280;50750;51.636;4.948;2023-02-23T07:06:08;101580.57;;;12.34;65.80
59873;BME280;50750;51.636;4.948;2023-02-23T07:08:35;101586.21;;;12.33;65.79
59873;BME280;50750;51.636;4.948;2023-02-23T07:11:13;101589.57;;;12.32;65.73
59873;BME280;50750;51.636;4.948;2023-02-23T07:13:41;101593.09;;;12.32;65.74
59873;BME280;50750;51.636;4.948;2023-02-23T07:16:08;101595.00;;;12.32;65.75
59873;BME280;50750;51.636;4.948;2023-02-23T07:18:34;101601.15;;;12.32;65.71
59873;BME280;50750;51.636;4.948;2023-02-23T07:21:01;101608.69;;;12.33;65.78
59873;BME280;50750;51.636;4.948;2023-02-23T07:23:27;101607.98;;;12.33;65.69
59873;BME280;50750;51.636;4.948;2023-02-23T07:25:54;101608.70;;;12.33;65.75
59873;BME280;50750;51.636;4.948;2023-02-23T07:28:21;101610.45;;;12.33;65.69
59873;BME280;50750;51.636;4.948;2023-02-23T07:30:49;101614.85;;;12.32;65.71
59873;BME280;50750;51.636;4.948;2023-02-23T07:33:15;101620.65;;;12.32;65.82
59873;BME280;50750;51.636;4.948;2023-02-23T07:35:42;101623.66;;;12.31;65.72
59873;BME280;50750;51.636;4.948;2023-02-23T07:38:10;101626.14;;;12.31;65.73
59873;BME280;50750;51.636;4.948;2023-02-23T07:40:37;101628.59;;;12.30;65.74
59873;BME280;50750;51.636;4.948;2023-02-23T07:43:05;101634.39;;;12.31;65.79
59873;BME280;50750;51.636;4.948;2023-02-23T07:45:32;101638.09;;;12.31;65.74
59873;BME280;50750;51.636;4.948;2023-02-23T07:47:58;101640.90;;;12.31;65.79
59873;BME280;50750;51.636;4.948;2023-02-23T07:50:25;101643.00;;;12.31;65.81
59873;BME280;50750;51.636;4.948;2023-02-23T07:52:52;101644.75;;;12.31;65.69
59873;BME280;50750;51.636;4.948;2023-02-23T07:55:18;101649.66;;;12.31;65.83
59873;BME280;50750;51.636;4.948;2023-02-23T07:57:45;101653.89;;;12.31;65.75
59873;BME280;50750;51.636;4.948;2023-02-23T08:00:12;101658.09;;;12.31;65.83
59873;BME280;50750;51.636;4.948;2023-02-23T08:02:39;101652.48;;;12.31;65.73
59873;BME280;50750;51.636;4.948;2023-02-23T08:05:06;101652.66;;;12.30;65.81
59873;BME280;50750;51.636;4.948;2023-02-23T08:07:33;101657.94;;;12.30;65.74
59873;BME280;50750;51.636;4.948;2023-02-23T08:09:59;101661.30;;;12.29;65.88
59873;BME280;50750;51.636;4.948;2023-02-23T08:12:26;101663.40;;;12.29;65.76
59873;BME280;50750;51.636;4.948;2023-02-23T08:14:52;101666.38;;;12.29;65.92
59873;BME280;50750;51.636;4.948;2023-02-23T08:17:19;101669.53;;;12.30;65.86
59873;BME280;50750;51.636;4.948;2023-02-23T08:19:46;101671.10;;;12.30;65.85
59873;BME280;50750;51.636;4.948;2023-02-23T08:22:12;101673.91;;;12.31;65.84
59873;BME280;50750;51.636;4.948;2023-02-23T08:24:38;101674.44;;;12.31;65.79
59873;BME280;50750;51.636;4.948;2023-02-23T08:27:05;101671.80;;;12.31;65.83
59873;BME280;50750;51.636;4.948;2023-02-23T08:29:32;101673.39;;;12.30;65.84
59873;BME280;50750;51.636;4.948;2023-02-23T08:32:02;101677.24;;;12.31;65.79
59873;BME280;50750;51.636;4.948;2023-02-23T08:34:29;101680.05;;;12.30;65.88
59873;BME280;50750;51.636;4.948;2023-02-23T08:36:55;101685.33;;;12.30;65.83
59873;BME280;50750;51.636;4.948;2023-02-23T08:39:22;101683.23;;;12.30;65.85
59873;BME280;50750;51.636;4.948;2023-02-23T08:41:48;101686.73;;;12.30;65.91
59873;BME280;50750;51.636;4.948;2023-02-23T08:44:15;101684.62;;;12.30;65.84
59873;BME280;50750;51.636;4.948;2023-02-23T08:46:42;101689.52;;;12.31;65.82
59873;BME280;50750;51.636;4.948;2023-02-23T08:49:10;101692.16;;;12.31;65.83
59873;BME280;50750;51.636;4.948;2023-02-23T08:51:37;101695.30;;;12.32;65.77
59873;BME280;50750;51.636;4.948;2023-02-23T08:54:04;101701.42;;;12.32;65.78
59873;BME280;50750;51.636;4.948;2023-02-23T08:56:35;101700.20;;;12.32;65.84
59873;BME280;50750;51.636;4.948;2023-02-23T08:59:01;101701.94;;;12.33;65.87
59873;BME280;50750;51.636;4.948;2023-02-23T09:01:28;101708.98;;;12.33;65.83
59873;BME280;50750;51.636;4.948;2023-02-23T09:03:55;101708.27;;;12.33;65.81
59873;BME280;50750;51.636;4.948;2023-02-23T09:06:23;101715.83;;;12.33;65.83
59873;BME280;50750;51.636;4.948;2023-02-23T09:08:52;101721.98;;;12.32;65.75
59873;BME280;50750;51.636;4.948;2023-02-23T09:11:21;101723.08;;;12.31;65.87
59873;BME280;50750;51.636;4.948;2023-02-23T09:13:48;101726.74;;;12.32;65.84
59873;BME280;50750;51.636;4.948;2023-02-23T09:16:15;101728.85;;;12.31;65.82
59873;BME280;50750;51.636;4.948;2023-02-23T09:18:42;101730.07;;;12.32;65.82
59873;BME280;50750;51.636;4.948;2023-02-23T09:21:16;101735.32;;;12.33;65.77
59873;BME280;50750;51.636;4.948;2023-02-23T09:23:51;101734.44;;;12.33;65.81
59873;BME280;50750;51.636;4.948;2023-02-23T09:26:22;101737.42;;;12.34;65.82
59873;BME280;50750;51.636;4.948;2023-02-23T09:28:49;101735.11;;;12.34;65.80
59873;BME280;50750;51.636;4.948;2023-02-23T09:31:19;101734.59;;;12.34;65.87
59873;BME280;50750;51.636;4.948;2023-02-23T09:33:45;101738.96;;;12.35;65.75
59873;BME280;50750;51.636;4.948;2023-02-23T09:36:15;101740.73;;;12.34;65.79
59873;BME280;50750;51.636;4.948;2023-02-23T09:38:46;101742.14;;;12.34;65.66
59873;BME280;50750;51.636;4.948;2023-02-23T09:46:58;101746.23;;;12.32;65.84
59873;BME280;50750;51.636;4.948;2023-02-23T09:49:32;101750.80;;;12.32;65.90
59873;BME280;50750;51.636;4.948;2023-02-23T09:52:00;101751.48;;;12.32;65.90
59873;BME280;50750;51.636;4.948;2023-02-23T09:54:32;101748.14;;;12.33;65.95
59873;BME280;50750;51.636;4.948;2023-02-23T09:57:02;101750.23;;;12.33;65.83
59873;BME280;50750;51.636;4.948;2023-02-23T09:59:30;101753.04;;;12.34;65.91
59873;BME280;50750;51.636;4.948;2023-02-23T10:02:43;101754.42;;;12.34;65.83
59873;BME280;50750;51.636;4.948;2023-02-23T10:05:14;101750.71;;;12.35;65.79
59873;BME280;50750;51.636;4.948;2023-02-23T10:07:46;101749.14;;;12.35;65.78
59873;BME280;50750;51.636;4.948;2023-02-23T10:15:51;101753.20;;;12.34;65.89
59873;BME280;50750;51.636;4.948;2023-02-23T10:21:02;101749.70;;;12.34;65.87
59873;BME280;50750;51.636;4.948;2023-02-23T10:23:39;101747.95;;;12.34;65.88
59873;BME280;50750;51.636;4.948;2023-02-23T10:26:11;101748.45;;;12.35;65.92
59873;BME280;50750;51.636;4.948;2023-02-23T10:28:40;101753.35;;;12.35;65.93
59873;BME280;50750;51.636;4.948;2023-02-23T10:31:34;101760.73;;;12.35;65.96
59873;BME280;50750;51.636;4.948;2023-02-23T10:34:08;101770.58;;;12.36;65.98
59873;BME280;50750;51.636;4.948;2023-02-23T10:36:56;101770.20;;;12.36;65.95
59873;BME280;50750;51.636;4.948;2023-02-23T10:39:24;101766.16;;;12.36;65.89
59873;BME280;50750;51.636;4.948;2023-02-23T10:41:52;101767.21;;;12.36;66.08
59873;BME280;50750;51.636;4.948;2023-02-23T10:44:22;101770.90;;;12.36;66.00
59873;BME280;50750;51.636;4.948;2023-02-23T10:47:00;101771.42;;;12.36;65.98
59873;BME280;50750;51.636;4.948;2023-02-23T10:49:38;101769.48;;;12.37;65.95
59873;BME280;50750;51.636;4.948;2023-02-23T10:52:11;101767.89;;;12.37;65.92
59873;BME280;50750;51.636;4.948;2023-02-23T10:54:41;101772.98;;;12.37;65.91
59873;BME280;50750;51.636;4.948;2023-02-23T10:57:29;101774.36;;;12.38;66.00
59873;BME280;50750;51.636;4.948;2023-02-23T11:02:44;101769.23;;;12.40;65.94
59873;BME280;50750;51.636;4.948;2023-02-23T11:13:38;101779.42;;;12.40;65.83
59873;BME280;50750;51.636;4.948;2023-02-23T11:16:14;101777.51;;;12.40;65.87
59873;BME280;50750;51.636;4.948;2023-02-23T11:19:15;101776.80;;;12.39;65.90
59873;BME280;50750;51.636;4.948;2023-02-23T11:21:38;101768.90;;;12.39;65.89
59873;BME280;50750;51.636;4.948;2023-02-23T11:24:24;101771.36;;;12.39;65.78
59873;BME280;50750;51.636;4.948;2023-02-23T11:26:53;101771.87;;;12.40;65.87
59873;BME280;50750;51.636;4.948;2023-02-23T11:29:31;101769.55;;;12.41;65.80
59873;BME280;50750;51.636;4.948;2023-02-23T11:34:39;101771.09;;;12.43;65.89
59873;BME280;50750;51.636;4.948;2023-02-23T11:37:18;101767.40;;;12.44;65.73
59873;BME280;50750;51.636;4.948;2023-02-23T11:39:55;101768.77;;;12.45;65.80
59873;BME280;50750;51.636;4.948;2023-02-23T11:42:24;101771.22;;;12.45;65.82
59873;BME280;50750;51.636;4.948;2023-02-23T11:47:33;101768.25;;;12.45;65.83
59873;BME280;50750;51.636;4.948;2023-02-23T11:50:05;101770.89;;;12.44;65.76
59873;BME280;50750;51.636;4.948;2023-02-23T11:52:33;101770.03;;;12.43;65.74
59873;BME280;50750;51.636;4.948;2023-02-23T11:55:05;101764.78;;;12.43;65.75
59873;BME280;50750;51.636;4.948;2023-02-23T11:57:34;101761.09;;;12.42;65.73
59873;BME280;50750;51.636;4.948;2023-02-23T12:00:10;101755.33;;;12.41;65.84
59873;BME280;50750;51.636;4.948;2023-02-23T12:02:53;101751.80;;;12.42;65.88
59873;BME280;50750;51.636;4.948;2023-02-23T12:05:24;101754.98;;;12.42;65.83
59873;BME280;50750;51.636;4.948;2023-02-23T12:08:16;101755.31;;;12.42;65.74
59873;BME280;50750;51.636;4.948;2023-02-23T12:10:52;101757.02;;;12.44;65.75
59873;BME280;50750;51.636;4.948;2023-02-23T12:13:40;101752.45;;;12.44;65.74
59873;BME280;50750;51.636;4.948;2023-02-23T12:16:20;101753.83;;;12.45;65.74
59873;BME280;50750;51.636;4.948;2023-02-23T12:18:56;101753.46;;;12.46;65.81
59873;BME280;50750;51.636;4.948;2023-02-23T12:21:41;101756.44;;;12.46;65.79
59873;BME280;50750;51.636;4.948;2023-02-23T12:29:23;101755.56;;;12.46;65.71
59873;BME280;50750;51.636;4.948;2023-02-23T12:31:58;101753.46;;;12.46;65.70
59873;BME280;50750;51.636;4.948;2023-02-23T12:34:42;101752.41;;;12.45;65.68
59873;BME280;50750;51.636;4.948;2023-02-23T12:40:09;101758.58;;;12.45;65.70
59873;BME280;50750;51.636;4.948;2023-02-23T12:42:39;101758.23;;;12.45;65.78
59873;BME280;50750;51.636;4.948;2023-02-23T12:45:17;101756.27;;;12.46;65.79
59873;BME280;50750;51.636;4.948;2023-02-23T12:47:52;101750.27;;;12.46;65.57
59873;BME280;50750;51.636;4.948;2023-02-23T12:50:27;101750.98;;;12.47;65.73
59873;BME280;50750;51.636;4.948;2023-02-23T12:53:15;101751.83;;;12.48;65.66
59873;BME280;50750;51.636;4.948;2023-02-23T13:01:21;101757.78;;;12.49;65.65
59873;BME280;50750;51.636;4.948;2023-02-23T13:15:07;101771.70;;;12.47;65.77
59873;BME280;50750;51.636;4.948;2023-02-23T13:20:32;101772.72;;;12.48;65.67
59873;BME280;50750;51.636;4.948;2023-02-23T13:28:07;101767.05;;;12.50;65.72
59873;BME280;50750;51.636;4.948;2023-02-23T13:30:39;101769.50;;;12.51;65.69
59873;BME280;50750;51.636;4.948;2023-02-23T13:33:25;101771.09;;;12.50;65.58
59873;BME280;50750;51.636;4.948;2023-02-23T13:35:52;101772.13;;;12.51;65.67
59873;BME280;50750;51.636;4.948;2023-02-23T13:41:38;101765.11;;;12.51;65.74
59873;BME280;50750;51.636;4.948;2023-02-23T13:47:08;101761.80;;;12.50;65.69
59873;BME280;50750;51.636;4.948;2023-02-23T13:52:37;101759.68;;;12.50;65.75
59873;BME280;50750;51.636;4.948;2023-02-23T13:57:52;101762.98;;;12.51;65.73
59873;BME280;50750;51.636;4.948;2023-02-23T14:00:20;101763.16;;;12.51;65.65
59873;BME280;50750;51.636;4.948;2023-02-23T14:02:48;101766.15;;;12.51;65.71
59873;BME280;50750;51.636;4.948;2023-02-23T14:05:21;101769.30;;;12.52;65.75
59873;BME280;50750;51.636;4.948;2023-02-23T14:08:04;101765.43;;;12.52;65.72
59873;BME280;50750;51.636;4.948;2023-02-23T14:10:39;101759.83;;;12.51;65.79
59873;BME280;50750;51.636;4.948;2023-02-23T14:15:43;101763.02;;;12.50;65.79
59873;BME280;50750;51.636;4.948;2023-02-23T14:20:51;101771.13;;;12.50;65.87
59873;BME280;50750;51.636;4.948;2023-02-23T14:26:12;101768.81;;;12.50;65.82
59873;BME280;50750;51.636;4.948;2023-02-23T14:28:40;101760.91;;;12.50;65.77
59873;BME280;50750;51.636;4.948;2023-02-23T14:49:27;101759.73;;;12.49;65.84
59873;BME280;50750;51.636;4.948;2023-02-23T14:52:03;101761.83;;;12.49;65.83
59873;BME280;50750;51.636;4.948;2023-02-23T14:54:38;101762.69;;;12.50;65.88
59873;BME280;50750;51.636;4.948;2023-02-23T14:57:23;101764.77;;;12.50;65.85
59873;BME280;50750;51.636;4.948;2023-02-23T14:59:59;101764.93;;;12.51;65.73
59873;BME280;50750;51.636;4.948;2023-02-23T15:02:28;101765.44;;;12.51;65.73
59873;BME280;50750;51.636;4.948;2023-02-23T15:04:56;101759.99;;;12.51;65.71
59873;BME280;50750;51.636;4.948;2023-02-23T15:07:39;101763.15;;;12.51;65.74
59873;BME280;50750;51.636;4.948;2023-02-23T15:10:09;101760.34;;;12.52;65.67
59873;BME280;50750;51.636;4.948;2023-02-23T15:12:38;101767.54;;;12.52;65.72
59873;BME280;50750;51.636;4.948;2023-02-23T15:15:14;101765.42;;;12.52;65.77
59873;BME280;50750;51.636;4.948;2023-02-23T15:17:46;101765.09;;;12.52;65.75
59873;BME280;50750;51.636;4.948;2023-02-23T15:20:18;101762.80;;;12.51;65.70
59873;BME280;50750;51.636;4.948;2023-02-23T15:22:51;101763.86;;;12.52;65.70
59873;BME280;50750;51.636;4.948;2023-02-23T15:25:23;101766.30;;;12.53;65.76
59873;BME280;50750;51.636;4.948;2023-02-23T15:27:51;101766.98;;;12.53;65.81
59873;BME280;50750;51.636;4.948;2023-02-23T15:30:28;101765.20;;;12.54;65.71
59873;BME280;50750;51.636;4.948;2023-02-23T15:33:10;101763.09;;;12.55;65.74
59873;BME280;50750;51.636;4.948;2023-02-23T15:35:48;101763.41;;;12.56;65.71
59873;BME280;50750;51.636;4.948;2023-02-23T15:38:23;101760.25;;;12.56;65.71
59873;BME280;50750;51.636;4.948;2023-02-23T15:40:53;101763.77;;;12.56;65.76
59873;BME280;50750;51.636;4.948;2023-02-23T15:43:22;101767.97;;;12.56;65.68
59873;BME280;50750;51.636;4.948;2023-02-23T15:45:51;101774.82;;;12.56;65.68
59873;BME280;50750;51.636;4.948;2023-02-23T15:48:22;101777.47;;;12.55;65.59
59873;BME280;50750;51.636;4.948;2023-02-23T15:50:55;101779.93;;;12.56;65.71